createdAt,value
2024-01-15T00:03:12.788Z,5.92
2024-01-15T00:08:14.955Z,5.83
2024-01-15T00:13:17.209Z,5.90
2024-01-15T00:18:19.628Z,5.97
2024-01-15T00:23:22.112Z,6.04
2024-01-15T00:28:24.314Z,6.09
2024-01-15T00:33:26.729Z,6.02
2024-01-15T00:38:28.950Z,6.00
2024-01-15T00:43:31.710Z,5.28
2024-01-15T00:48:34.707Z,5.38
2024-01-15T00:53:37.161Z,5.65
2024-01-15T00:58:39.377Z,6.07
2024-01-15T01:03:41.843Z,5.91
2024-01-15T01:08:44.133Z,5.91
2024-01-15T01:13:46.415Z,5.33
2024-01-15T01:18:48.962Z,5.90
2024-01-15T01:23:51.411Z,5.76
2024-01-15T01:28:53.705Z,5.91
2024-01-15T01:33:56.017Z,5.61
2024-01-15T01:38:58.324Z,5.60
2024-01-15T01:44:00.652Z,5.60
2024-01-15T01:49:07.008Z,5.34
2024-01-15T01:54:10.853Z,5.49
2024-01-15T01:59:13.808Z,5.50
2024-01-15T02:04:20.828Z,5.58
2024-01-15T02:09:24.425Z,5.38
2024-01-15T02:14:26.656Z,5.30
2024-01-15T02:19:29.027Z,5.73
2024-01-15T02:24:31.421Z,5.68
2024-01-15T02:29:33.754Z,5.31
2024-01-15T02:34:36.316Z,4.89
2024-01-15T02:39:38.693Z,5.25
2024-01-15T02:44:40.917Z,4.91
2024-01-15T02:49:43.241Z,5.39
2024-01-15T02:54:45.702Z,5.40
2024-01-15T02:59:48.029Z,4.75
2024-01-15T03:04:50.328Z,4.75
2024-01-15T03:09:52.620Z,5.02
2024-01-15T03:14:54.926Z,4.69
2024-01-15T03:19:57.292Z,5.14
2024-01-15T03:24:59.729Z,5.28
2024-01-15T03:30:02.052Z,5.17
2024-01-15T03:35:04.427Z,5.14
2024-01-15T03:40:07.616Z,4.94
2024-01-15T03:45:10.072Z,5.11
2024-01-15T03:50:12.354Z,4.61
2024-01-15T03:55:14.703Z,5.10
2024-01-15T04:00:19.104Z,5.21
2024-01-15T04:05:21.436Z,5.14
2024-01-15T04:10:23.568Z,4.99
2024-01-15T04:15:25.843Z,5.06
2024-01-15T04:20:28.106Z,4.95
2024-01-15T04:25:30.315Z,5.15
2024-01-15T04:30:32.637Z,5.16
2024-01-15T04:35:35.981Z,4.95
2024-01-15T04:40:38.181Z,5.08
2024-01-15T04:45:40.450Z,5.02
2024-01-15T04:50:42.635Z,5.01
2024-01-15T04:55:45.310Z,4.93
2024-01-15T05:00:47.784Z,5.01
2024-01-15T05:05:50.190Z,5.04
2024-01-15T05:10:52.534Z,5.12
2024-01-15T05:15:55.105Z,5.24
2024-01-15T05:20:57.449Z,5.50
2024-01-15T05:25:59.722Z,5.20
2024-01-15T05:31:02.246Z,5.42
2024-01-15T05:36:04.853Z,5.59
2024-01-15T05:41:07.462Z,5.79
2024-01-15T05:46:09.744Z,5.46
2024-01-15T05:51:12.155Z,5.09
2024-01-15T05:56:14.392Z,5.33
2024-01-15T06:01:16.735Z,5.52
2024-01-15T06:06:19.544Z,5.43
2024-01-15T06:11:21.901Z,5.02
2024-01-15T06:16:25.644Z,5.73
2024-01-15T06:21:28.137Z,5.50
2024-01-15T06:26:30.522Z,5.14
2024-01-15T06:31:32.935Z,5.65
2024-01-15T06:36:35.313Z,5.59
2024-01-15T06:41:44.982Z,5.58
2024-01-15T06:46:49.340Z,5.90
2024-01-15T06:51:51.785Z,5.76
2024-01-15T06:56:54.108Z,5.99
2024-01-15T07:01:56.821Z,5.66
2024-01-15T07:06:59.194Z,5.78
2024-01-15T07:12:01.560Z,5.98
2024-01-15T07:17:03.993Z,5.77
2024-01-15T07:22:06.456Z,6.03
2024-01-15T07:27:09.976Z,6.22
2024-01-15T07:32:12.476Z,5.58
2024-01-15T07:37:14.758Z,6.38
2024-01-15T07:42:17.151Z,5.84
2024-01-15T07:47:19.508Z,6.19
2024-01-15T07:52:21.778Z,6.18
2024-01-15T07:57:24.299Z,6.83
2024-01-15T08:02:26.599Z,6.99
2024-01-15T08:07:29.242Z,7.01
2024-01-15T08:12:31.682Z,7.03
2024-01-15T08:17:34.050Z,7.52
2024-01-15T08:22:36.412Z,7.52
2024-01-15T08:27:38.626Z,7.49
2024-01-15T08:32:44.265Z,7.81
2024-01-15T08:37:46.608Z,8.03
2024-01-15T08:42:48.996Z,7.98
2024-01-15T08:47:51.442Z,8.02
2024-01-15T08:52:54.019Z,8.24
2024-01-15T08:57:57.997Z,7.89
2024-01-15T09:03:00.495Z,8.61
2024-01-15T09:08:02.787Z,8.27
2024-01-15T09:13:06.198Z,8.63
2024-01-15T09:18:08.989Z,8.68
2024-01-15T09:23:11.376Z,8.68
2024-01-15T09:28:13.581Z,8.84
2024-01-15T09:33:15.916Z,8.91
2024-01-15T09:38:20.603Z,9.08
2024-01-15T09:43:23.560Z,9.11
2024-01-15T09:48:25.855Z,9.29
2024-01-15T09:53:28.169Z,9.29
2024-01-15T09:58:31.347Z,9.48
2024-01-15T10:03:34.708Z,9.59
2024-01-15T10:08:38.918Z,9.39
2024-01-15T10:13:43.103Z,9.75
2024-01-15T10:18:46.290Z,9.54
2024-01-15T10:23:48.592Z,9.85
2024-01-15T10:28:53.817Z,10.01
2024-01-15T10:33:56.214Z,9.94
2024-01-15T10:38:59.453Z,9.99
2024-01-15T10:44:01.717Z,10.01
2024-01-15T10:49:04.104Z,10.12
2024-01-15T10:54:06.832Z,10.19
2024-01-15T10:59:11.954Z,10.27
2024-01-15T11:04:14.552Z,10.20
2024-01-15T11:09:20.095Z,10.29
2024-01-15T11:15:05.588Z,10.33
2024-01-15T11:20:08.195Z,10.47
2024-01-15T11:25:17.666Z,10.36
2024-01-15T11:40:53.306Z,10.42
2024-01-15T11:51:13.932Z,10.57
2024-01-15T11:56:23.510Z,10.57
2024-01-15T12:01:26.707Z,10.55
2024-01-15T12:06:29.132Z,10.40
2024-01-15T12:11:33.460Z,10.28
2024-01-15T12:16:36.111Z,10.49
2024-01-15T12:21:41.302Z,10.52
2024-01-15T12:26:43.567Z,10.34
2024-01-15T12:31:49.827Z,10.35
2024-01-15T12:36:52.063Z,10.44
2024-01-15T12:41:54.579Z,10.37
2024-01-15T12:46:56.758Z,10.38
2024-01-15T12:51:59.950Z,10.37
2024-01-15T12:57:02.262Z,10.30
2024-01-15T13:02:04.594Z,10.31
2024-01-15T13:07:08.264Z,10.28
2024-01-15T13:12:10.625Z,10.38
2024-01-15T13:17:12.853Z,10.32
2024-01-15T13:22:17.463Z,10.32
2024-01-15T13:27:19.707Z,10.32
2024-01-15T13:32:31.390Z,10.23
2024-01-15T13:37:33.726Z,10.23
2024-01-15T13:42:35.940Z,10.26
2024-01-15T13:47:39.139Z,10.36
2024-01-15T13:52:43.613Z,10.29
2024-01-15T13:57:45.916Z,10.32
2024-01-15T14:02:50.901Z,10.22
2024-01-15T14:07:53.167Z,10.26
2024-01-15T14:12:55.352Z,10.31
2024-01-15T14:17:57.580Z,10.28
2024-01-15T14:22:59.932Z,10.23
2024-01-15T14:28:02.208Z,10.25
2024-01-15T14:33:04.726Z,10.24
2024-01-15T14:38:07.076Z,10.30
2024-01-15T14:43:09.762Z,10.33
2024-01-15T14:48:12.483Z,10.32
2024-01-15T14:53:14.751Z,10.25
2024-01-15T14:58:16.929Z,10.19
2024-01-15T15:03:19.521Z,10.24
2024-01-15T15:08:22.016Z,10.08
2024-01-15T15:13:34.009Z,10.06
2024-01-15T15:18:45.288Z,10.10
2024-01-15T15:23:49.052Z,10.21
2024-01-15T15:28:51.328Z,10.11
2024-01-15T15:33:54.553Z,10.06
2024-01-15T15:38:58.553Z,10.18
2024-01-15T15:44:00.988Z,10.15
2024-01-15T15:49:08.204Z,10.08
2024-01-15T15:54:10.873Z,9.99
2024-01-15T15:59:13.111Z,10.05
2024-01-15T16:04:16.805Z,10.00
2024-01-15T16:09:19.315Z,10.05
2024-01-15T16:14:21.573Z,10.02
2024-01-15T16:23:25.014Z,9.99
2024-01-15T16:24:51.246Z,9.94
2024-01-15T16:29:55.640Z,10.03
2024-01-15T16:34:59.273Z,10.04
2024-01-15T16:40:01.735Z,10.11
2024-01-15T16:45:04.238Z,10.06
2024-01-15T16:50:06.910Z,10.01
2024-01-15T16:55:09.417Z,9.99
2024-01-15T17:00:12.408Z,10.02
2024-01-15T17:05:14.718Z,10.00
2024-01-15T17:10:17.042Z,10.12
2024-01-15T17:15:19.226Z,10.03
2024-01-15T17:20:21.809Z,9.99
2024-01-15T17:25:24.040Z,10.09
2024-01-15T17:30:26.945Z,10.14
2024-01-15T17:35:29.943Z,10.01
2024-01-15T17:40:32.368Z,10.06
2024-01-15T17:45:34.506Z,10.08
2024-01-15T17:50:38.339Z,9.99
2024-01-15T17:55:40.908Z,10.08
2024-01-15T18:00:43.133Z,10.12
2024-01-15T18:05:45.721Z,10.09
2024-01-15T18:10:48.234Z,10.18
2024-01-15T18:16:00.212Z,10.01
2024-01-15T18:21:02.500Z,9.77
2024-01-15T18:26:06.356Z,10.11
2024-01-15T18:31:09.144Z,10.19
2024-01-15T18:36:12.583Z,10.14
2024-01-15T18:41:27.399Z,9.77
2024-01-15T18:46:30.070Z,10.06
2024-01-15T18:51:32.348Z,9.51
2024-01-15T18:56:39.861Z,9.95
2024-01-15T19:01:42.378Z,9.93
2024-01-15T19:06:48.380Z,9.50
2024-01-15T19:11:51.506Z,9.93
2024-01-15T19:16:54.206Z,10.01
2024-01-15T19:21:56.417Z,9.85
2024-01-15T19:26:58.799Z,9.90
2024-01-15T19:32:02.279Z,9.99
2024-01-15T19:37:05.816Z,9.87
2024-01-15T19:42:08.113Z,9.86
2024-01-15T19:47:10.531Z,9.95
2024-01-15T19:52:13.070Z,9.88
2024-01-15T19:57:15.589Z,9.80
2024-01-15T20:02:17.872Z,9.63
2024-01-15T20:07:20.182Z,9.64
2024-01-15T20:12:22.855Z,9.33
2024-01-15T20:17:26.346Z,9.40
2024-01-15T20:22:33.209Z,9.48
2024-01-15T20:27:37.379Z,9.48
2024-01-15T20:32:39.755Z,9.70
2024-01-15T20:37:42.163Z,9.73
2024-01-15T20:42:44.336Z,9.51
2024-01-15T20:47:46.766Z,9.33
2024-01-15T20:52:49.067Z,9.62
2024-01-15T20:57:51.372Z,9.57
2024-01-15T21:02:56.225Z,9.49
2024-01-15T21:07:59.737Z,9.37
2024-01-15T21:13:02.054Z,9.36
2024-01-15T21:18:07.556Z,9.43
2024-01-15T21:23:11.525Z,9.43
2024-01-15T21:28:13.763Z,9.42
2024-01-15T21:33:16.228Z,9.35
2024-01-15T21:38:18.418Z,9.15
2024-01-15T21:43:20.553Z,9.16
2024-01-15T21:48:22.817Z,9.27
2024-01-15T21:53:25.444Z,9.26
2024-01-15T21:58:27.662Z,9.36
2024-01-15T22:03:29.990Z,9.29
2024-01-15T22:08:32.406Z,9.32
2024-01-15T22:13:34.614Z,9.25
2024-01-15T22:18:36.934Z,9.37
2024-01-15T22:23:39.245Z,9.45
2024-01-15T22:28:41.600Z,9.43
2024-01-15T22:33:44.221Z,9.29
2024-01-15T22:38:46.625Z,9.37
2024-01-15T22:43:48.775Z,9.46
2024-01-15T22:48:51.006Z,9.29
2024-01-15T22:53:54.949Z,9.25
2024-01-15T22:58:57.304Z,9.05
2024-01-15T23:03:59.484Z,8.96
2024-01-15T23:09:01.677Z,9.01
2024-01-15T23:14:03.933Z,9.05
2024-01-15T23:19:06.809Z,8.97
2024-01-15T23:24:11.911Z,8.88
2024-01-15T23:29:14.450Z,8.86
2024-01-15T23:34:16.863Z,8.56
2024-01-15T23:39:19.104Z,8.55
2024-01-15T23:44:21.366Z,8.62
2024-01-15T23:49:23.703Z,8.30
2024-01-15T23:54:26.835Z,8.61
2024-01-15T23:59:29.224Z,8.33
